sensor_id;sensor_type;location;lat;lon;timestamp;P1;durP1;ratioP1;P2;durP2;ratioP2
28323;SDS011;15583;54.078;12.106;2023-02-15T00:01:05;39.83;;;17.58;;
28323;SDS011;15583;54.078;12.106;2023-02-15T00:03:31;45.67;;;18.08;;
28323;SDS011;15583;54.078;12.106;2023-02-15T00:05:57;44.88;;;19.45;;
28323;SDS011;15583;54.078;12.106;2023-02-15T00:08:23;43.97;;;18.83;;
28323;SDS011;15583;54.078;12.106;2023-02-15T00:10:49;40.88;;;18.80;;
28323;SDS011;15583;54.078;12.106;2023-02-15T00:13:15;43.88;;;17.77;;
28323;SDS011;15583;54.078;12.106;2023-02-15T00:15:41;38.95;;;17.33;;
28323;SDS011;15583;54.078;12.106;2023-02-15T00:18:07;46.97;;;19.75;;
28323;SDS011;15583;54.078;12.106;2023-02-15T00:20:33;41.67;;;18.00;;
28323;SDS011;15583;54.078;12.106;2023-02-15T00:22:59;41.10;;;17.20;;
28323;SDS011;15583;54.078;12.106;2023-02-15T00:25:25;48.47;;;18.55;;
28323;SDS011;15583;54.078;12.106;2023-02-15T00:27:51;39.55;;;18.42;;
28323;SDS011;15583;54.078;12.106;2023-02-15T00:30:17;46.75;;;18.55;;
28323;SDS011;15583;54.078;12.106;2023-02-15T00:32:43;43.25;;;18.38;;
28323;SDS011;15583;54.078;12.106;2023-02-15T00:35:09;43.13;;;18.45;;
28323;SDS011;15583;54.078;12.106;2023-02-15T00:37:35;43.22;;;18.65;;
28323;SDS011;15583;54.078;12.106;2023-02-15T00:40:01;44.22;;;19.10;;
28323;SDS011;15583;54.078;12.106;2023-02-15T00:42:27;37.75;;;17.90;;
28323;SDS011;15583;54.078;12.106;2023-02-15T00:44:53;43.97;;;18.23;;
28323;SDS011;15583;54.078;12.106;2023-02-15T00:47:19;41.30;;;18.10;;
28323;SDS011;15583;54.078;12.106;2023-02-15T00:49:45;48.15;;;18.65;;
28323;SDS011;15583;54.078;12.106;2023-02-15T00:52:11;45.70;;;19.05;;
28323;SDS011;15583;54.078;12.106;2023-02-15T00:54:37;45.20;;;19.15;;
28323;SDS011;15583;54.078;12.106;2023-02-15T00:57:03;44.55;;;18.48;;
28323;SDS011;15583;54.078;12.106;2023-02-15T00:59:29;40.63;;;18.27;;
28323;SDS011;15583;54.078;12.106;2023-02-15T01:01:55;42.30;;;18.38;;
28323;SDS011;15583;54.078;12.106;2023-02-15T01:04:21;43.10;;;17.98;;
28323;SDS011;15583;54.078;12.106;2023-02-15T01:06:47;45.22;;;19.20;;
28323;SDS011;15583;54.078;12.106;2023-02-15T01:09:13;45.17;;;19.38;;
28323;SDS011;15583;54.078;12.106;2023-02-15T01:11:39;44.67;;;19.48;;
28323;SDS011;15583;54.078;12.106;2023-02-15T01:14:05;39.88;;;18.02;;
28323;SDS011;15583;54.078;12.106;2023-02-15T01:16:31;46.38;;;19.17;;
28323;SDS011;15583;54.078;12.106;2023-02-15T01:18:57;41.58;;;18.88;;
28323;SDS011;15583;54.078;12.106;2023-02-15T01:21:24;41.78;;;17.08;;
28323;SDS011;15583;54.078;12.106;2023-02-15T01:23:50;45.58;;;18.88;;
28323;SDS011;15583;54.078;12.106;2023-02-15T01:26:16;44.70;;;19.20;;
28323;SDS011;15583;54.078;12.106;2023-02-15T01:28:42;44.05;;;18.60;;
28323;SDS011;15583;54.078;12.106;2023-02-15T01:31:09;41.72;;;18.60;;
28323;SDS011;15583;54.078;12.106;2023-02-15T01:33:36;40.55;;;18.10;;
28323;SDS011;15583;54.078;12.106;2023-02-15T01:36:02;45.92;;;18.08;;
28323;SDS011;15583;54.078;12.106;2023-02-15T01:38:28;48.33;;;20.13;;
28323;SDS011;15583;54.078;12.106;2023-02-15T01:40:54;50.22;;;19.98;;
28323;SDS011;15583;54.078;12.106;2023-02-15T01:43:41;47.35;;;19.02;;
28323;SDS011;15583;54.078;12.106;2023-02-15T01:46:08;45.05;;;19.20;;
28323;SDS011;15583;54.078;12.106;2023-02-15T01:48:34;45.20;;;18.77;;
28323;SDS011;15583;54.078;12.106;2023-02-15T01:51:02;43.75;;;18.95;;
28323;SDS011;15583;54.078;12.106;2023-02-15T01:55:59;46.70;;;18.60;;
28323;SDS011;15583;54.078;12.106;2023-02-15T01:58:26;55.30;;;20.20;;
28323;SDS011;15583;54.078;12.106;2023-02-15T02:00:54;41.83;;;19.27;;
28323;SDS011;15583;54.078;12.106;2023-02-15T02:03:21;43.78;;;19.42;;
28323;SDS011;15583;54.078;12.106;2023-02-15T02:05:52;42.38;;;18.83;;
28323;SDS011;15583;54.078;12.106;2023-02-15T02:08:18;41.85;;;19.10;;
28323;SDS011;15583;54.078;12.106;2023-02-15T02:10:44;42.20;;;19.23;;
28323;SDS011;15583;54.078;12.106;2023-02-15T02:13:10;44.03;;;19.23;;
28323;SDS011;15583;54.078;12.106;2023-02-15T02:15:44;45.88;;;18.95;;
28323;SDS011;15583;54.078;12.106;2023-02-15T02:23:24;47.05;;;19.65;;
28323;SDS011;15583;54.078;12.106;2023-02-15T02:26:04;44.97;;;19.15;;
28323;SDS011;15583;54.078;12.106;2023-02-15T02:36:18;52.67;;;20.90;;
28323;SDS011;15583;54.078;12.106;2023-02-15T02:41:24;44.85;;;19.58;;
28323;SDS011;15583;54.078;12.106;2023-02-15T02:49:30;46.60;;;20.25;;
28323;SDS011;15583;54.078;12.106;2023-02-15T02:52:03;46.50;;;20.42;;
28323;SDS011;15583;54.078;12.106;2023-02-15T02:54:29;51.08;;;20.30;;
28323;SDS011;15583;54.078;12.106;2023-02-15T02:56:56;47.88;;;19.75;;
28323;SDS011;15583;54.078;12.106;2023-02-15T02:59:32;45.13;;;18.98;;
28323;SDS011;15583;54.078;12.106;2023-02-15T03:04:29;44.13;;;18.90;;
28323;SDS011;15583;54.078;12.106;2023-02-15T03:07:03;42.90;;;18.40;;
28323;SDS011;15583;54.078;12.106;2023-02-15T03:09:41;44.22;;;20.35;;
28323;SDS011;15583;54.078;12.106;2023-02-15T03:12:13;42.90;;;19.00;;
28323;SDS011;15583;54.078;12.106;2023-02-15T03:14:43;48.13;;;19.58;;
28323;SDS011;15583;54.078;12.106;2023-02-15T03:17:11;45.92;;;20.10;;
28323;SDS011;15583;54.078;12.106;2023-02-15T03:19:37;46.25;;;19.08;;
28323;SDS011;15583;54.078;12.106;2023-02-15T03:22:12;44.53;;;20.08;;
28323;SDS011;15583;54.078;12.106;2023-02-15T03:24:43;48.72;;;20.55;;
28323;SDS011;15583;54.078;12.106;2023-02-15T03:27:14;46.47;;;19.15;;
28323;SDS011;15583;54.078;12.106;2023-02-15T03:29:42;46.45;;;19.77;;
28323;SDS011;15583;54.078;12.106;2023-02-15T03:32:09;44.65;;;19.17;;
28323;SDS011;15583;54.078;12.106;2023-02-15T03:34:36;47.53;;;20.33;;
28323;SDS011;15583;54.078;12.106;2023-02-15T03:42:04;52.80;;;21.15;;
28323;SDS011;15583;54.078;12.106;2023-02-15T03:44:33;49.95;;;21.88;;
28323;SDS011;15583;54.078;12.106;2023-02-15T03:47:36;50.83;;;21.50;;
28323;SDS011;15583;54.078;12.106;2023-02-15T03:50:05;51.65;;;21.63;;
28323;SDS011;15583;54.078;12.106;2023-02-15T03:52:51;46.90;;;20.80;;
28323;SDS011;15583;54.078;12.106;2023-02-15T03:55:18;51.40;;;19.90;;
28323;SDS011;15583;54.078;12.106;2023-02-15T03:57:44;55.83;;;22.00;;
28323;SDS011;15583;54.078;12.106;2023-02-15T04:00:28;52.03;;;20.50;;
28323;SDS011;15583;54.078;12.106;2023-02-15T04:05:41;48.13;;;21.90;;
28323;SDS011;15583;54.078;12.106;2023-02-15T04:08:07;48.40;;;20.05;;
28323;SDS011;15583;54.078;12.106;2023-02-15T04:10:33;52.60;;;20.92;;
28323;SDS011;15583;54.078;12.106;2023-02-15T04:13:21;51.83;;;20.83;;
28323;SDS011;15583;54.078;12.106;2023-02-15T04:15:47;51.78;;;21.77;;
28323;SDS011;15583;54.078;12.106;2023-02-15T04:19:01;46.03;;;20.35;;
28323;SDS011;15583;54.078;12.106;2023-02-15T04:21:39;50.80;;;20.67;;
28323;SDS011;15583;54.078;12.106;2023-02-15T04:24:23;48.60;;;20.02;;
28323;SDS011;15583;54.078;12.106;2023-02-15T04:27:07;50.83;;;20.60;;
28323;SDS011;15583;54.078;12.106;2023-02-15T04:29:33;53.58;;;22.17;;
28323;SDS011;15583;54.078;12.106;2023-02-15T04:32:00;52.00;;;20.00;;
28323;SDS011;15583;54.078;12.106;2023-02-15T04:34:27;50.60;;;19.63;;
28323;SDS011;15583;54.078;12.106;2023-02-15T04:36:53;53.50;;;20.92;;
28323;SDS011;15583;54.078;12.106;2023-02-15T04:39:19;47.25;;;18.98;;
28323;SDS011;15583;54.078;12.106;2023-02-15T04:41:45;50.60;;;20.63;;
28323;SDS011;15583;54.078;12.106;2023-02-15T04:44:12;53.17;;;19.52;;
28323;SDS011;15583;54.078;12.106;2023-02-15T04:46:38;46.28;;;20.00;;
28323;SDS011;15583;54.078;12.106;2023-02-15T04:49:04;56.58;;;21.45;;
28323;SDS011;15583;54.078;12.106;2023-02-15T04:51:30;50.53;;;19.80;;
28323;SDS011;15583;54.078;12.106;2023-02-15T04:53:57;54.03;;;21.98;;
28323;SDS011;15583;54.078;12.106;2023-02-15T04:56:23;56.70;;;20.27;;
28323;SDS011;15583;54.078;12.106;2023-02-15T04:58:49;54.78;;;21.23;;
28323;SDS011;15583;54.078;12.106;2023-02-15T05:01:15;58.75;;;20.55;;
28323;SDS011;15583;54.078;12.106;2023-02-15T05:03:41;54.60;;;20.27;;
28323;SDS011;15583;54.078;12.106;2023-02-15T05:06:07;52.30;;;20.70;;
28323;SDS011;15583;54.078;12.106;2023-02-15T05:08:33;56.17;;;20.83;;
28323;SDS011;15583;54.078;12.106;2023-02-15T05:10:59;53.78;;;20.85;;
28323;SDS011;15583;54.078;12.106;2023-02-15T05:13:25;48.72;;;18.98;;
28323;SDS011;15583;54.078;12.106;2023-02-15T05:15:51;50.90;;;20.13;;
28323;SDS011;15583;54.078;12.106;2023-02-15T05:18:18;48.30;;;19.63;;
28323;SDS011;15583;54.078;12.106;2023-02-15T05:20:44;53.17;;;21.13;;
28323;SDS011;15583;54.078;12.106;2023-02-15T05:23:10;55.90;;;21.50;;
28323;SDS011;15583;54.078;12.106;2023-02-15T05:25:36;52.95;;;21.00;;
28323;SDS011;15583;54.078;12.106;2023-02-15T05:28:21;45.50;;;19.27;;
28323;SDS011;15583;54.078;12.106;2023-02-15T05:30:48;45.08;;;19.35;;
28323;SDS011;15583;54.078;12.106;2023-02-15T05:33:15;48.92;;;20.02;;
28323;SDS011;15583;54.078;12.106;2023-02-15T05:35:41;48.40;;;19.75;;
28323;SDS011;15583;54.078;12.106;2023-02-15T05:38:07;54.20;;;21.05;;
28323;SDS011;15583;54.078;12.106;2023-02-15T05:40:33;54.20;;;21.27;;
28323;SDS011;15583;54.078;12.106;2023-02-15T05:42:59;49.78;;;20.10;;
28323;SDS011;15583;54.078;12.106;2023-02-15T05:45:25;51.83;;;20.70;;
28323;SDS011;15583;54.078;12.106;2023-02-15T05:47:51;50.17;;;20.75;;
28323;SDS011;15583;54.078;12.106;2023-02-15T05:50:17;53.15;;;20.80;;
28323;SDS011;15583;54.078;12.106;2023-02-15T05:52:43;47.45;;;19.80;;
28323;SDS011;15583;54.078;12.106;2023-02-15T05:55:09;49.92;;;19.33;;
28323;SDS011;15583;54.078;12.106;2023-02-15T05:57:35;53.90;;;21.85;;
28323;SDS011;15583;54.078;12.106;2023-02-15T06:00:02;49.85;;;22.10;;
28323;SDS011;15583;54.078;12.106;2023-02-15T06:02:29;49.28;;;21.50;;
28323;SDS011;15583;54.078;12.106;2023-02-15T06:04:55;51.92;;;21.23;;
28323;SDS011;15583;54.078;12.106;2023-02-15T06:07:21;48.42;;;20.67;;
28323;SDS011;15583;54.078;12.106;2023-02-15T06:09:47;51.10;;;20.38;;
28323;SDS011;15583;54.078;12.106;2023-02-15T06:12:13;48.78;;;20.75;;
28323;SDS011;15583;54.078;12.106;2023-02-15T06:14:39;46.13;;;19.90;;
28323;SDS011;15583;54.078;12.106;2023-02-15T06:17:04;49.65;;;20.73;;
28323;SDS011;15583;54.078;12.106;2023-02-15T06:19:31;52.60;;;21.17;;
28323;SDS011;15583;54.078;12.106;2023-02-15T06:21:57;59.58;;;20.65;;
28323;SDS011;15583;54.078;12.106;2023-02-15T06:24:23;49.45;;;20.42;;
28323;SDS011;15583;54.078;12.106;2023-02-15T06:26:49;43.20;;;19.33;;
28323;SDS011;15583;54.078;12.106;2023-02-15T06:29:15;46.15;;;19.70;;
28323;SDS011;15583;54.078;12.106;2023-02-15T06:31:41;43.88;;;18.30;;
28323;SDS011;15583;54.078;12.106;2023-02-15T06:34:07;45.33;;;18.50;;
28323;SDS011;15583;54.078;12.106;2023-02-15T06:36:33;49.85;;;19.25;;
28323;SDS011;15583;54.078;12.106;2023-02-15T06:38:59;50.10;;;19.15;;
28323;SDS011;15583;54.078;12.106;2023-02-15T06:41:26;49.35;;;19.73;;
28323;SDS011;15583;54.078;12.106;2023-02-15T06:43:52;54.25;;;20.20;;
28323;SDS011;15583;54.078;12.106;2023-02-15T06:46:18;49.97;;;19.23;;
28323;SDS011;15583;54.078;12.106;2023-02-15T06:48:44;49.17;;;19.58;;
28323;SDS011;15583;54.078;12.106;2023-02-15T06:51:10;43.88;;;18.75;;
28323;SDS011;15583;54.078;12.106;2023-02-15T06:53:36;43.70;;;19.67;;
28323;SDS011;15583;54.078;12.106;2023-02-15T06:56:03;46.92;;;19.67;;
28323;SDS011;15583;54.078;12.106;2023-02-15T06:58:31;49.33;;;20.65;;
28323;SDS011;15583;54.078;12.106;2023-02-15T07:00:57;44.95;;;18.77;;
28323;SDS011;15583;54.078;12.106;2023-02-15T07:03:23;48.42;;;20.15;;
28323;SDS011;15583;54.078;12.106;2023-02-15T07:05:53;47.05;;;20.08;;
28323;SDS011;15583;54.078;12.106;2023-02-15T07:08:20;47.17;;;19.25;;
28323;SDS011;15583;54.078;12.106;2023-02-15T07:10:46;49.25;;;19.75;;
28323;SDS011;15583;54.078;12.106;2023-02-15T07:13:12;45.03;;;19.50;;
28323;SDS011;15583;54.078;12.106;2023-02-15T07:15:38;45.47;;;20.00;;
28323;SDS011;15583;54.078;12.106;2023-02-15T07:18:04;48.30;;;20.73;;
28323;SDS011;15583;54.078;12.106;2023-02-15T07:20:30;41.63;;;19.17;;
28323;SDS011;15583;54.078;12.106;2023-02-15T07:22:58;48.65;;;19.05;;
28323;SDS011;15583;54.078;12.106;2023-02-15T07:28:16;48.33;;;20.60;;
28323;SDS011;15583;54.078;12.106;2023-02-15T07:30:42;49.85;;;19.02;;
28323;SDS011;15583;54.078;12.106;2023-02-15T07:33:08;46.63;;;19.83;;
28323;SDS011;15583;54.078;12.106;2023-02-15T07:35:50;45.90;;;19.48;;
28323;SDS011;15583;54.078;12.106;2023-02-15T07:38:16;42.50;;;19.65;;
28323;SDS011;15583;54.078;12.106;2023-02-15T07:40:42;50.80;;;19.92;;
28323;SDS011;15583;54.078;12.106;2023-02-15T07:43:08;45.53;;;20.67;;
28323;SDS011;15583;54.078;12.106;2023-02-15T07:45:34;42.80;;;19.30;;
28323;SDS011;15583;54.078;12.106;2023-02-15T07:48:01;44.38;;;20.45;;
28323;SDS011;15583;54.078;12.106;2023-02-15T07:50:27;43.92;;;19.60;;
28323;SDS011;15583;54.078;12.106;2023-02-15T07:52:53;40.90;;;19.55;;
28323;SDS011;15583;54.078;12.106;2023-02-15T07:55:19;49.22;;;21.52;;
28323;SDS011;15583;54.078;12.106;2023-02-15T07:57:45;43.90;;;20.13;;
28323;SDS011;15583;54.078;12.106;2023-02-15T08:00:12;41.92;;;19.95;;
28323;SDS011;15583;54.078;12.106;2023-02-15T08:02:39;49.22;;;19.55;;
28323;SDS011;15583;54.078;12.106;2023-02-15T08:05:05;43.30;;;19.90;;
28323;SDS011;15583;54.078;12.106;2023-02-15T08:07:31;44.50;;;19.50;;
28323;SDS011;15583;54.078;12.106;2023-02-15T08:09:57;45.60;;;20.30;;
28323;SDS011;15583;54.078;12.106;2023-02-15T08:12:25;40.70;;;19.55;;
28323;SDS011;15583;54.078;12.106;2023-02-15T08:14:52;40.85;;;19.92;;
28323;SDS011;15583;54.078;12.106;2023-02-15T08:17:18;39.88;;;20.52;;
28323;SDS011;15583;54.078;12.106;2023-02-15T08:19:44;39.15;;;19.42;;
28323;SDS011;15583;54.078;12.106;2023-02-15T08:22:12;44.00;;;19.38;;
28323;SDS011;15583;54.078;12.106;2023-02-15T08:24:38;45.10;;;20.08;;
28323;SDS011;15583;54.078;12.106;2023-02-15T08:27:05;43.15;;;20.35;;
28323;SDS011;15583;54.078;12.106;2023-02-15T08:29:32;43.40;;;19.92;;
28323;SDS011;15583;54.078;12.106;2023-02-15T08:32:00;42.58;;;19.60;;
28323;SDS011;15583;54.078;12.106;2023-02-15T08:34:33;41.38;;;19.80;;
28323;SDS011;15583;54.078;12.106;2023-02-15T08:36:59;40.10;;;19.13;;
28323;SDS011;15583;54.078;12.106;2023-02-15T08:39:25;39.05;;;18.00;;
28323;SDS011;15583;54.078;12.106;2023-02-15T08:41:51;40.80;;;19.05;;
28323;SDS011;15583;54.078;12.106;2023-02-15T08:44:18;42.00;;;20.60;;
28323;SDS011;15583;54.078;12.106;2023-02-15T08:46:45;42.90;;;20.23;;
28323;SDS011;15583;54.078;12.106;2023-02-15T08:49:12;41.10;;;19.88;;
28323;SDS011;15583;54.078;12.106;2023-02-15T08:51:38;39.53;;;19.13;;
28323;SDS011;15583;54.078;12.106;2023-02-15T08:54:06;42.97;;;18.80;;
28323;SDS011;15583;54.078;12.106;2023-02-15T08:56:34;42.42;;;19.70;;
28323;SDS011;15583;54.078;12.106;2023-02-15T08:59:00;39.42;;;19.23;;
28323;SDS011;15583;54.078;12.106;2023-02-15T09:01:27;39.97;;;19.55;;
28323;SDS011;15583;54.078;12.106;2023-02-15T09:04:01;35.30;;;17.77;;
28323;SDS011;15583;54.078;12.106;2023-02-15T09:06:29;35.67;;;18.33;;
28323;SDS011;15583;54.078;12.106;2023-02-15T09:08:55;33.15;;;17.88;;
28323;SDS011;15583;54.078;12.106;2023-02-15T09:11:22;36.45;;;18.05;;
28323;SDS011;15583;54.078;12.106;2023-02-15T09:13:51;32.92;;;17.08;;
28323;SDS011;15583;54.078;12.106;2023-02-15T09:16:18;36.60;;;18.05;;
28323;SDS011;15583;54.078;12.106;2023-02-15T09:18:45;35.67;;;18.38;;
28323;SDS011;15583;54.078;12.106;2023-02-15T09:21:15;31.25;;;17.45;;
28323;SDS011;15583;54.078;12.106;2023-02-15T09:23:42;34.90;;;18.33;;
28323;SDS011;15583;54.078;12.106;2023-02-15T09:26:09;35.08;;;17.90;;
28323;SDS011;15583;54.078;12.106;2023-02-15T09:28:35;31.55;;;17.13;;
28323;SDS011;15583;54.078;12.106;2023-02-15T09:31:09;36.63;;;19.17;;
28323;SDS011;15583;54.078;12.106;2023-02-15T09:33:35;31.75;;;16.73;;
28323;SDS011;15583;54.078;12.106;2023-02-15T09:36:03;30.85;;;16.83;;
28323;SDS011;15583;54.078;12.106;2023-02-15T09:38:29;34.78;;;17.90;;
28323;SDS011;15583;54.078;12.106;2023-02-15T09:41:03;31.63;;;17.40;;
28323;SDS011;15583;54.078;12.106;2023-02-15T09:46:08;30.35;;;17.13;;
28323;SDS011;15583;54.078;12.106;2023-02-15T09:48:41;34.40;;;17.65;;
28323;SDS011;15583;54.078;12.106;2023-02-15T09:51:13;32.72;;;18.23;;
28323;SDS011;15583;54.078;12.106;2023-02-15T09:53:51;32.20;;;17.85;;
28323;SDS011;15583;54.078;12.106;2023-02-15T09:56:30;32.47;;;17.48;;
28323;SDS011;15583;54.078;12.106;2023-02-15T10:02:02;33.67;;;18.27;;
28323;SDS011;15583;54.078;12.106;2023-02-15T10:04:44;32.42;;;17.42;;
28323;SDS011;15583;54.078;12.106;2023-02-15T10:10:02;33.38;;;18.00;;
28323;SDS011;15583;54.078;12.106;2023-02-15T10:12:36;32.67;;;17.90;;
28323;SDS011;15583;54.078;12.106;2023-02-15T10:15:27;32.97;;;18.60;;
28323;SDS011;15583;54.078;12.106;2023-02-15T10:20:28;35.15;;;18.13;;
28323;SDS011;15583;54.078;12.106;2023-02-15T10:31:33;34.15;;;17.63;;
28323;SDS011;15583;54.078;12.106;2023-02-15T10:34:01;33.50;;;18.00;;
28323;SDS011;15583;54.078;12.106;2023-02-15T10:36:33;33.13;;;17.42;;
28323;SDS011;15583;54.078;12.106;2023-02-15T10:44:11;38.08;;;19.90;;
28323;SDS011;15583;54.078;12.106;2023-02-15T10:46:54;39.42;;;19.55;;
28323;SDS011;15583;54.078;12.106;2023-02-15T11:02:10;40.30;;;19.63;;
28323;SDS011;15583;54.078;12.106;2023-02-15T11:07:26;36.50;;;19.80;;
28323;SDS011;15583;54.078;12.106;2023-02-15T11:10:14;37.17;;;19.05;;
28323;SDS011;15583;54.078;12.106;2023-02-15T11:12:45;38.58;;;19.90;;
28323;SDS011;15583;54.078;12.106;2023-02-15T11:15:25;41.20;;;20.65;;
28323;SDS011;15583;54.078;12.106;2023-02-15T11:17:59;39.53;;;20.33;;
28323;SDS011;15583;54.078;12.106;2023-02-15T11:20:31;39.42;;;20.48;;
28323;SDS011;15583;54.078;12.106;2023-02-15T11:22:59;45.22;;;21.13;;
28323;SDS011;15583;54.078;12.106;2023-02-15T11:25:30;42.55;;;22.05;;
28323;SDS011;15583;54.078;12.106;2023-02-15T11:27:56;40.25;;;20.83;;
28323;SDS011;15583;54.078;12.106;2023-02-15T11:30:23;40.17;;;19.45;;
28323;SDS011;15583;54.078;12.106;2023-02-15T11:32:51;41.70;;;22.17;;
28323;SDS011;15583;54.078;12.106;2023-02-15T11:37:53;45.22;;;22.25;;
28323;SDS011;15583;54.078;12.106;2023-02-15T11:40:22;42.97;;;22.30;;
28323;SDS011;15583;54.078;12.106;2023-02-15T11:42:49;42.03;;;20.85;;
28323;SDS011;15583;54.078;12.106;2023-02-15T11:45:22;43.50;;;21.20;;
28323;SDS011;15583;54.078;12.106;2023-02-15T11:47:51;42.10;;;21.05;;
28323;SDS011;15583;54.078;12.106;2023-02-15T11:50:19;41.70;;;21.80;;
28323;SDS011;15583;54.078;12.106;2023-02-15T11:52:47;41.72;;;21.25;;
28323;SDS011;15583;54.078;12.106;2023-02-15T11:55:14;43.30;;;21.98;;
28323;SDS011;15583;54.078;12.106;2023-02-15T11:57:44;40.88;;;22.02;;
28323;SDS011;15583;54.078;12.106;2023-02-15T12:00:20;43.38;;;22.08;;
28323;SDS011;15583;54.078;12.106;2023-02-15T12:02:50;43.40;;;21.88;;
28323;SDS011;15583;54.078;12.106;2023-02-15T12:05:42;46.08;;;22.90;;
28323;SDS011;15583;54.078;12.106;2023-02-15T12:08:19;44.88;;;22.90;;
28323;SDS011;15583;54.078;12.106;2023-02-15T12:13:19;47.58;;;23.08;;
28323;SDS011;15583;54.078;12.106;2023-02-15T12:15:46;49.17;;;24.05;;
28323;SDS011;15583;54.078;12.106;2023-02-15T12:18:34;51.67;;;24.25;;
28323;SDS011;15583;54.078;12.106;2023-02-15T12:21:02;46.30;;;24.15;;
28323;SDS011;15583;54.078;12.106;2023-02-15T12:23:29;43.85;;;22.35;;
28323;SDS011;15583;54.078;12.106;2023-02-15T12:25:56;46.65;;;22.50;;
28323;SDS011;15583;54.078;12.106;2023-02-15T12:30:48;44.80;;;22.48;;
28323;SDS011;15583;54.078;12.106;2023-02-15T12:33:17;41.90;;;21.45;;
28323;SDS011;15583;54.078;12.106;2023-02-15T12:35:46;38.28;;;21.17;;
28323;SDS011;15583;54.078;12.106;2023-02-15T12:40:40;42.08;;;22.20;;
28323;SDS011;15583;54.078;12.106;2023-02-15T12:45:51;39.33;;;20.58;;
28323;SDS011;15583;54.078;12.106;2023-02-15T12:48:18;39.72;;;21.38;;
28323;SDS011;15583;54.078;12.106;2023-02-15T12:50:45;47.60;;;23.52;;
28323;SDS011;15583;54.078;12.106;2023-02-15T12:53:18;42.20;;;20.92;;
28323;SDS011;15583;54.078;12.106;2023-02-15T12:56:07;40.38;;;21.38;;
28323;SDS011;15583;54.078;12.106;2023-02-15T12:58:35;43.08;;;20.98;;
28323;SDS011;15583;54.078;12.106;2023-02-15T13:01:02;46.10;;;21.05;;
28323;SDS011;15583;54.078;12.106;2023-02-15T13:03:28;43.00;;;21.38;;
28323;SDS011;15583;54.078;12.106;2023-02-15T13:05:55;46.00;;;22.90;;
28323;SDS011;15583;54.078;12.106;2023-02-15T13:08:25;45.47;;;22.63;;
28323;SDS011;15583;54.078;12.106;2023-02-15T13:10:56;44.53;;;21.35;;
28323;SDS011;15583;54.078;12.106;2023-02-15T13:13:26;46.10;;;21.88;;
28323;SDS011;15583;54.078;12.106;2023-02-15T13:15:55;45.63;;;21.55;;
28323;SDS011;15583;54.078;12.106;2023-02-15T13:18:30;39.22;;;19.73;;
28323;SDS011;15583;54.078;12.106;2023-02-15T13:20:57;41.17;;;20.17;;
28323;SDS011;15583;54.078;12.106;2023-02-15T13:23:25;40.60;;;19.80;;
28323;SDS011;15583;54.078;12.106;2023-02-15T13:25:52;41.83;;;20.25;;
28323;SDS011;15583;54.078;12.106;2023-02-15T13:28:20;36.88;;;19.48;;
28323;SDS011;15583;54.078;12.106;2023-02-15T13:30:48;39.25;;;20.02;;
28323;SDS011;15583;54.078;12.106;2023-02-15T13:33:33;40.05;;;20.25;;
28323;SDS011;15583;54.078;12.106;2023-02-15T13:36:03;44.22;;;21.20;;
28323;SDS011;15583;54.078;12.106;2023-02-15T13:38:44;37.90;;;20.05;;
28323;SDS011;15583;54.078;12.106;2023-02-15T13:51:55;41.28;;;20.80;;
28323;SDS011;15583;54.078;12.106;2023-02-15T13:59:44;44.45;;;22.85;;
28323;SDS011;15583;54.078;12.106;2023-02-15T14:07:16;36.28;;;18.73;;
28323;SDS011;15583;54.078;12.106;2023-02-15T14:17:43;35.35;;;18.63;;
28323;SDS011;15583;54.078;12.106;2023-02-15T14:22:42;37.30;;;19.48;;
28323;SDS011;15583;54.078;12.106;2023-02-15T14:28:01;34.42;;;18.33;;
28323;SDS011;15583;54.078;12.106;2023-02-15T14:30:29;34.47;;;17.48;;
28323;SDS011;15583;54.078;12.106;2023-02-15T14:33:00;33.17;;;18.23;;
28323;SDS011;15583;54.078;12.106;2023-02-15T14:35:28;33.08;;;18.08;;
28323;SDS011;15583;54.078;12.106;2023-02-15T14:38:01;29.58;;;16.50;;
28323;SDS011;15583;54.078;12.106;2023-02-15T14:45:54;38.10;;;19.17;;
28323;SDS011;15583;54.078;12.106;2023-02-15T14:48:21;34.08;;;18.17;;
28323;SDS011;15583;54.078;12.106;2023-02-15T14:50:51;34.95;;;17.75;;
28323;SDS011;15583;54.078;12.106;2023-02-15T14:59:00;32.15;;;17.42;;
28323;SDS011;15583;54.078;12.106;2023-02-15T15:01:28;34.65;;;17.40;;
28323;SDS011;15583;54.078;12.106;2023-02-15T15:04:02;33.10;;;18.58;;
28323;SDS011;15583;54.078;12.106;2023-02-15T15:06:31;42.03;;;21.23;;
28323;SDS011;15583;54.078;12.106;2023-02-15T15:08:59;35.38;;;18.30;;
28323;SDS011;15583;54.078;12.106;2023-02-15T15:13:55;39.88;;;19.05;;
28323;SDS011;15583;54.078;12.106;2023-02-15T15:16:27;38.53;;;20.00;;
28323;SDS011;15583;54.078;12.106;2023-02-15T15:18:53;36.78;;;18.80;;
28323;SDS011;15583;54.078;12.106;2023-02-15T15:24:05;35.78;;;18.85;;
28323;SDS011;15583;54.078;12.106;2023-02-15T15:26:32;35.63;;;18.70;;
28323;SDS011;15583;54.078;12.106;2023-02-15T15:29:02;38.08;;;19.02;;
28323;SDS011;15583;54.078;12.106;2023-02-15T15:34:15;34.20;;;19.25;;
28323;SDS011;15583;54.078;12.106;2023-02-15T15:42:12;37.00;;;19.05;;
28323;SDS011;15583;54.078;12.106;2023-02-15T15:49:43;39.60;;;18.27;;
28323;SDS011;15583;54.078;12.106;2023-02-15T15:52:14;36.95;;;18.58;;
28323;SDS011;15583;54.078;12.106;2023-02-15T15:54:40;38.58;;;17.42;;
28323;SDS011;15583;54.078;12.106;2023-02-15T15:57:12;35.80;;;18.55;;
28323;SDS011;15583;54.078;12.106;2023-02-15T15:59:43;36.28;;;19.30;;
28323;SDS011;15583;54.078;12.106;2023-02-15T16:02:11;35.15;;;18.60;;
28323;SDS011;15583;54.078;12.106;2023-02-15T16:04:40;35.88;;;17.70;;
28323;SDS011;15583;54.078;12.106;2023-02-15T16:09:54;36.47;;;18.48;;
28323;SDS011;15583;54.078;12.106;2023-02-15T16:12:21;35.22;;;17.75;;
28323;SDS011;15583;54.078;12.106;2023-02-15T16:14:47;33.75;;;18.38;;
28323;SDS011;15583;54.078;12.106;2023-02-15T16:17:24;37.50;;;19.13;;
28323;SDS011;15583;54.078;12.106;2023-02-15T16:19:50;37.15;;;19.52;;
28323;SDS011;15583;54.078;12.106;2023-02-15T16:22:21;37.17;;;19.45;;
28323;SDS011;15583;54.078;12.106;2023-02-15T16:29:51;36.50;;;18.67;;
28323;SDS011;15583;54.078;12.106;2023-02-15T16:32:21;40.92;;;19.42;;
28323;SDS011;15583;54.078;12.106;2023-02-15T16:34:55;39.55;;;18.98;;
28323;SDS011;15583;54.078;12.106;2023-02-15T16:37:23;40.72;;;20.23;;
28323;SDS011;15583;54.078;12.106;2023-02-15T16:39:50;42.30;;;21.27;;
28323;SDS011;15583;54.078;12.106;2023-02-15T16:42:17;44.40;;;20.23;;
28323;SDS011;15583;54.078;12.106;2023-02-15T16:44:44;40.20;;;20.05;;
28323;SDS011;15583;54.078;12.106;2023-02-15T16:47:14;47.60;;;21.65;;
28323;SDS011;15583;54.078;12.106;2023-02-15T16:49:43;47.92;;;21.98;;
28323;SDS011;15583;54.078;12.106;2023-02-15T16:52:12;46.30;;;21.20;;
28323;SDS011;15583;54.078;12.106;2023-02-15T16:54:41;41.58;;;20.42;;
28323;SDS011;15583;54.078;12.106;2023-02-15T16:57:15;44.65;;;22.52;;
28323;SDS011;15583;54.078;12.106;2023-02-15T16:59:42;43.88;;;20.90;;